createdAt,value
2023-04-22T00:01:43.396Z,4.71
2023-04-22T00:06:46.772Z,4.64
2023-04-22T00:11:49.976Z,4.57
2023-04-22T00:16:53.357Z,4.51
2023-04-22T00:21:56.907Z,4.46
2023-04-22T00:27:00.124Z,4.41
2023-04-22T00:32:03.848Z,4.37
2023-04-22T00:37:07.040Z,4.31
2023-04-22T00:42:10.730Z,4.26
2023-04-22T00:47:14.320Z,4.22
2023-04-22T00:52:17.585Z,4.20
2023-04-22T00:57:21.104Z,4.16
2023-04-22T01:02:25.574Z,4.11
2023-04-22T01:07:29.158Z,4.03
2023-04-22T01:12:32.065Z,3.94
2023-04-22T01:17:36.072Z,3.86
2023-04-22T01:22:45.741Z,3.78
2023-04-22T01:27:49.680Z,3.71
2023-04-22T01:32:53.389Z,3.63
2023-04-22T01:37:58.243Z,3.57
2023-04-22T01:43:02.163Z,3.51
2023-04-22T01:48:07.226Z,3.45
2023-04-22T01:53:11.923Z,3.40
2023-04-22T01:58:15.067Z,3.35
2023-04-22T02:03:18.209Z,3.29
2023-04-22T02:08:21.273Z,3.25
2023-04-22T02:13:24.484Z,3.21
2023-04-22T02:18:27.904Z,3.17
2023-04-22T02:23:31.472Z,3.12
2023-04-22T02:28:34.624Z,3.06
2023-04-22T02:33:37.855Z,3.00
2023-04-22T02:38:40.937Z,2.93
2023-04-22T02:43:46.526Z,2.88
2023-04-22T02:48:49.916Z,2.84
2023-04-22T02:53:53.320Z,2.78
2023-04-22T02:58:56.425Z,2.73
2023-04-22T03:04:00.187Z,2.67
2023-04-22T03:09:04.286Z,2.60
2023-04-22T03:14:07.380Z,2.53
2023-04-22T03:19:10.500Z,2.48
2023-04-22T03:24:13.902Z,2.45
2023-04-22T03:29:16.904Z,2.42
2023-04-22T03:34:20.021Z,2.40
2023-04-22T03:39:23.123Z,2.38
2023-04-22T03:44:26.194Z,2.40
2023-04-22T03:49:29.293Z,2.42
2023-04-22T03:54:32.432Z,2.47
2023-04-22T03:59:35.954Z,2.53
2023-04-22T04:04:39.571Z,2.64
2023-04-22T04:09:43.007Z,2.83
2023-04-22T04:14:46.093Z,3.73
2023-04-22T04:19:49.602Z,5.46
2023-04-22T04:24:52.909Z,7.30
2023-04-22T04:29:56.203Z,9.12
2023-04-22T04:35:00.251Z,10.85
2023-04-22T04:40:04.168Z,12.28
2023-04-22T04:45:09.606Z,13.33
2023-04-22T04:50:12.733Z,14.44
2023-04-22T04:55:16.730Z,15.39
2023-04-22T05:00:20.069Z,16.45
2023-04-22T05:05:23.180Z,17.51
2023-04-22T05:10:26.604Z,18.43
2023-04-22T05:15:30.310Z,19.32
2023-04-22T05:20:36.188Z,20.19
2023-04-22T05:25:40.434Z,20.90
2023-04-22T05:30:43.535Z,21.40
2023-04-22T05:35:46.937Z,22.00
2023-04-22T05:40:50.667Z,22.56
2023-04-22T05:45:53.793Z,23.23
2023-04-22T05:50:56.987Z,23.90
2023-04-22T05:56:00.320Z,24.60
2023-04-22T06:01:03.702Z,25.32
2023-04-22T06:06:07.721Z,26.12
2023-04-22T06:11:11.541Z,26.88
2023-04-22T06:16:14.651Z,27.62
2023-04-22T06:21:18.268Z,28.18
2023-04-22T06:26:21.881Z,28.96
2023-04-22T06:31:25.122Z,29.44
2023-04-22T06:36:30.473Z,29.89
2023-04-22T06:41:34.164Z,30.70
2023-04-22T06:46:39.765Z,31.13
2023-04-22T06:51:43.145Z,31.55
2023-04-22T06:56:46.580Z,32.20
2023-04-22T07:01:50.008Z,32.73
2023-04-22T07:06:53.951Z,32.96
2023-04-22T07:11:58.123Z,32.80
2023-04-22T07:17:01.337Z,32.44
2023-04-22T07:22:05.237Z,32.81
2023-04-22T07:27:08.915Z,33.27
2023-04-22T07:32:12.732Z,33.88
2023-04-22T07:37:16.217Z,34.46
2023-04-22T07:42:19.525Z,34.96
2023-04-22T07:47:23.154Z,35.35
2023-04-22T07:52:26.349Z,35.83
2023-04-22T07:57:29.643Z,35.33
2023-04-22T08:02:33.190Z,35.67
2023-04-22T08:07:36.591Z,36.17
2023-04-22T08:12:39.912Z,36.36
2023-04-22T08:17:43.644Z,36.49
2023-04-22T08:22:47.457Z,36.86
2023-04-22T08:27:52.599Z,36.91
2023-04-22T08:32:56.088Z,36.54
2023-04-22T08:37:59.320Z,35.30
2023-04-22T08:43:03.352Z,35.78
2023-04-22T08:48:09.806Z,36.55
2023-04-22T08:53:14.084Z,36.85
2023-04-22T08:58:18.203Z,37.57
2023-04-22T09:03:22.727Z,38.36
2023-04-22T09:08:26.862Z,38.89
2023-04-22T09:13:30.591Z,39.41
2023-04-22T09:18:41.269Z,39.64
2023-04-22T09:23:55.161Z,39.55
2023-04-22T09:29:00.935Z,39.36
2023-04-22T09:34:05.019Z,39.14
2023-04-22T09:39:08.950Z,39.00
2023-04-22T09:44:18.205Z,39.12
2023-04-22T09:49:22.022Z,39.11
2023-04-22T09:54:25.226Z,39.12
2023-04-22T09:59:30.067Z,38.98
2023-04-22T10:04:33.397Z,38.79
2023-04-22T10:09:37.314Z,38.09
2023-04-22T10:14:40.983Z,35.92
2023-04-22T10:19:47.818Z,33.22
2023-04-22T10:24:55.841Z,30.80
2023-04-22T10:29:58.946Z,28.90
2023-04-22T10:35:11.421Z,27.22
2023-04-22T10:40:19.100Z,25.92
2023-04-22T10:45:26.035Z,25.07
2023-04-22T10:50:33.022Z,24.49
2023-04-22T10:55:54.419Z,23.94
2023-04-22T11:01:03.375Z,23.55
2023-04-22T11:06:17.290Z,23.18
2023-04-22T11:11:20.840Z,22.81
2023-04-22T11:16:24.679Z,22.54
2023-04-22T11:21:28.167Z,22.31
2023-04-22T11:26:35.512Z,22.15
2023-04-22T11:31:39.112Z,22.05
2023-04-22T11:36:46.089Z,21.99
2023-04-22T11:41:49.292Z,21.87
2023-04-22T11:46:52.504Z,21.84
2023-04-22T11:51:57.178Z,21.79
2023-04-22T11:57:15.744Z,21.63
2023-04-22T12:02:19.090Z,21.62
2023-04-22T12:07:22.366Z,21.61
2023-04-22T12:12:28.964Z,21.63
2023-04-22T12:17:32.319Z,21.57
2023-04-22T12:22:36.765Z,21.48
2023-04-22T12:27:40.690Z,21.42
2023-04-22T12:32:44.104Z,21.38
2023-04-22T12:37:47.216Z,21.36
2023-04-22T12:42:50.451Z,21.32
2023-04-22T12:47:54.127Z,21.26
2023-04-22T12:52:57.453Z,21.23
2023-04-22T12:58:00.977Z,21.05
2023-04-22T13:03:04.376Z,20.93
2023-04-22T13:08:08.360Z,20.99
2023-04-22T13:18:18.056Z,21.06
2023-04-22T13:23:22.167Z,21.02
2023-04-22T13:28:26.149Z,21.01
2023-04-22T13:33:29.464Z,20.99
2023-04-22T13:38:44.793Z,20.91
2023-04-22T13:43:52.163Z,20.84
2023-04-22T13:48:57.024Z,20.84
2023-04-22T13:54:01.076Z,20.85
2023-04-22T13:59:04.449Z,20.77
2023-04-22T14:04:07.890Z,20.67
2023-04-22T14:09:11.897Z,20.57
2023-04-22T14:14:15.308Z,20.39
2023-04-22T14:19:19.078Z,20.22
2023-04-22T14:24:24.502Z,20.12
2023-04-22T14:29:30.462Z,20.06
2023-04-22T14:34:34.483Z,20.00
2023-04-22T14:39:37.807Z,19.96
2023-04-22T14:44:41.207Z,19.95
2023-04-22T14:49:44.415Z,19.89
2023-04-22T14:54:51.199Z,19.85
2023-04-22T14:59:55.028Z,19.87
2023-04-22T15:04:58.234Z,19.83
2023-04-22T15:10:02.413Z,19.78
2023-04-22T15:15:07.503Z,19.71
2023-04-22T15:20:12.412Z,19.64
2023-04-22T15:25:17.912Z,19.56
2023-04-22T15:30:21.455Z,19.47
2023-04-22T15:35:24.869Z,19.41
2023-04-22T15:40:28.067Z,19.34
2023-04-22T15:45:31.380Z,19.27
2023-04-22T15:50:35.092Z,19.22
2023-04-22T15:55:38.405Z,19.16
2023-04-22T16:00:43.712Z,19.09
2023-04-22T16:05:47.389Z,19.00
2023-04-22T16:10:51.575Z,18.89
2023-04-22T16:15:55.128Z,18.79
2023-04-22T16:21:00.517Z,18.70
2023-04-22T16:26:05.964Z,18.61
2023-04-22T16:31:10.930Z,18.51
2023-04-22T16:36:14.207Z,18.41
2023-04-22T16:41:17.617Z,18.31
2023-04-22T16:46:20.850Z,18.18
2023-04-22T16:51:24.037Z,18.04
2023-04-22T16:56:27.552Z,17.88
2023-04-22T17:01:31.500Z,17.72
2023-04-22T17:06:34.687Z,17.55
2023-04-22T17:11:38.521Z,17.37
2023-04-22T17:16:42.030Z,17.17
2023-04-22T17:21:45.712Z,16.94
2023-04-22T17:26:48.953Z,16.67
2023-04-22T17:31:52.740Z,16.36
2023-04-22T17:36:56.084Z,16.08
2023-04-22T17:41:59.294Z,15.81
2023-04-22T17:47:03.977Z,15.54
2023-04-22T17:52:08.379Z,15.26
2023-04-22T17:57:12.715Z,14.97
2023-04-22T18:02:16.449Z,14.65
2023-04-22T18:07:20.712Z,14.33
2023-04-22T18:12:28.575Z,14.02
2023-04-22T18:17:36.307Z,13.74
2023-04-22T18:22:40.942Z,13.51
2023-04-22T18:27:44.759Z,13.29
2023-04-22T18:32:48.812Z,13.08
2023-04-22T18:37:52.302Z,12.86
2023-04-22T18:42:55.923Z,12.63
2023-04-22T18:47:59.282Z,12.40
2023-04-22T18:53:02.755Z,12.18
2023-04-22T18:58:06.567Z,11.96
2023-04-22T19:03:11.684Z,11.74
2023-04-22T19:08:15.252Z,11.53
2023-04-22T19:13:29.314Z,11.34
2023-04-22T19:18:33.852Z,11.14
2023-04-22T19:23:39.084Z,10.95
2023-04-22T19:28:47.315Z,10.78
2023-04-22T19:33:51.759Z,10.62
2023-04-22T19:38:55.971Z,10.50
2023-04-22T19:44:01.606Z,10.36
2023-04-22T19:49:07.115Z,10.21
2023-04-22T19:54:13.348Z,10.11
2023-04-22T19:59:20.428Z,10.10
2023-04-22T20:04:26.179Z,10.06
2023-04-22T20:09:33.364Z,9.95
2023-04-22T20:14:37.300Z,9.80
2023-04-22T20:19:41.661Z,9.65
2023-04-22T20:24:46.483Z,9.51
2023-04-22T20:29:50.445Z,9.41
2023-04-22T20:34:56.469Z,9.30
2023-04-22T20:40:06.195Z,9.17
2023-04-22T20:45:15.830Z,9.06
2023-04-22T20:50:21.082Z,8.94
2023-04-22T20:55:24.605Z,8.83
2023-04-22T21:00:28.995Z,8.75
2023-04-22T21:05:33.953Z,8.65
2023-04-22T21:10:38.072Z,8.56
2023-04-22T21:15:47.260Z,8.45
2023-04-22T21:20:51.960Z,8.34
2023-04-22T21:25:56.929Z,8.26
2023-04-22T21:31:01.290Z,8.24
2023-04-22T21:36:05.476Z,8.24
2023-04-22T21:41:09.302Z,8.19
2023-04-22T21:46:12.871Z,8.12
2023-04-22T21:51:17.890Z,8.08
2023-04-22T21:56:22.227Z,8.04
2023-04-22T22:01:26.800Z,7.96
2023-04-22T22:06:30.765Z,7.88
2023-04-22T22:11:34.435Z,7.84
2023-04-22T22:16:38.874Z,7.76
2023-04-22T22:21:42.132Z,7.69
2023-04-22T22:26:45.141Z,7.63
2023-04-22T22:31:48.402Z,7.58
2023-04-22T22:36:51.969Z,7.52
2023-04-22T22:41:55.785Z,7.45
2023-04-22T22:46:59.098Z,7.38
2023-04-22T22:52:02.248Z,7.33
2023-04-22T22:57:05.920Z,7.27
2023-04-22T23:02:09.316Z,7.23
2023-04-22T23:07:12.651Z,7.21
2023-04-22T23:12:15.749Z,7.21
2023-04-22T23:17:19.116Z,7.16
2023-04-22T23:22:23.400Z,7.11
2023-04-22T23:27:26.913Z,7.04
2023-04-22T23:32:32.631Z,6.96
2023-04-22T23:37:38.105Z,6.92
2023-04-22T23:42:41.464Z,6.90
2023-04-22T23:47:44.926Z,6.84
2023-04-22T23:52:48.176Z,6.78
2023-04-22T23:57:51.691Z,6.74
